createdAt,value
2022-11-06T00:01:49.690Z,99546.66
2022-11-06T00:04:17.133Z,99563.34
2022-11-06T00:06:50.144Z,99558.75
2022-11-06T00:09:21.528Z,99549.25
2022-11-06T00:11:50.426Z,99565.69
2022-11-06T00:14:18.812Z,99560.09
2022-11-06T00:16:47.718Z,99551.88
2022-11-06T00:19:16.059Z,99551.31
2022-11-06T00:21:44.016Z,99561.72
2022-11-06T00:24:14.258Z,99560.16
2022-11-06T00:26:42.196Z,99549.31
2022-11-06T00:29:14.655Z,99557.69
2022-11-06T00:31:42.731Z,99545.44
2022-11-06T00:34:11.044Z,99541.88
2022-11-06T00:36:38.703Z,99519.56
2022-11-06T00:39:06.176Z,99532.22
2022-11-06T00:41:33.537Z,99538.66
2022-11-06T00:44:02.930Z,99532.66
2022-11-06T00:46:30.517Z,99532.22
2022-11-06T00:48:58.237Z,99535.34
2022-11-06T00:51:32.276Z,99536.81
2022-11-06T00:54:05.820Z,99535.78
2022-11-06T00:56:34.087Z,99536.81
2022-11-06T00:59:03.800Z,99538.22
2022-11-06T01:01:33.651Z,99533.34
2022-11-06T01:04:04.550Z,99540.25
2022-11-06T01:06:37.565Z,99544.97
2022-11-06T01:09:06.013Z,99544.59
2022-11-06T01:12:06.624Z,99532.66
2022-11-06T01:14:27.205Z,99525.78
2022-11-06T01:16:54.547Z,99521.84
2022-11-06T01:19:24.725Z,99521.38
2022-11-06T01:21:53.614Z,99530.63
2022-11-06T01:24:27.475Z,99528.91
2022-11-06T01:27:24.977Z,99530.72
2022-11-06T01:29:43.741Z,99523.34
2022-11-06T01:32:11.307Z,99533.53
2022-11-06T01:34:38.714Z,99529.00
2022-11-06T01:37:10.388Z,99520.19
2022-11-06T01:39:41.564Z,99522.81
2022-11-06T01:42:12.775Z,99537.31
2022-11-06T01:44:43.147Z,99528.84
2022-11-06T01:47:29.822Z,99523.09
2022-11-06T01:50:01.810Z,99525.97
2022-11-06T01:52:33.503Z,99528.16
2022-11-06T01:55:14.769Z,99520.47
2022-11-06T01:57:42.843Z,99519.44
2022-11-06T02:00:10.928Z,99519.78
2022-11-06T02:02:39.665Z,99521.47
2022-11-06T02:05:07.839Z,99521.78
2022-11-06T02:07:36.162Z,99518.59
2022-11-06T02:10:04.709Z,99515.19
2022-11-06T02:12:52.187Z,99511.25
2022-11-06T02:15:37.436Z,99525.78
2022-11-06T02:18:22.243Z,99525.78
2022-11-06T02:21:28.356Z,99526.28
2022-11-06T02:24:20.316Z,99525.00
2022-11-06T02:27:20.466Z,99525.31
2022-11-06T02:30:11.766Z,99524.22
2022-11-06T02:32:59.413Z,99524.69
2022-11-06T02:35:42.913Z,99540.78
2022-11-06T02:38:16.648Z,99538.06
2022-11-06T02:40:50.656Z,99526.22
2022-11-06T02:43:21.300Z,99534.03
2022-11-06T02:45:56.143Z,99516.59
2022-11-06T02:48:32.444Z,99533.06
2022-11-06T02:51:03.224Z,99538.19
2022-11-06T02:53:32.512Z,99533.34
2022-11-06T02:56:07.439Z,99539.78
2022-11-06T02:58:49.194Z,99548.78
2022-11-06T03:01:34.706Z,99542.50
2022-11-06T03:04:07.236Z,99545.00
2022-11-06T03:06:41.153Z,99553.13
2022-11-06T03:09:14.922Z,99562.38
2022-11-06T03:11:42.634Z,99555.69
2022-11-06T03:14:25.273Z,99562.97
2022-11-06T03:17:11.544Z,99559.25
2022-11-06T03:19:48.152Z,99564.00
2022-11-06T03:22:20.162Z,99573.84
2022-11-06T03:24:56.084Z,99567.31
2022-11-06T03:27:32.714Z,99573.44
2022-11-06T03:30:13.846Z,99577.97
2022-11-06T03:32:49.544Z,99580.31
2022-11-06T03:35:51.276Z,99583.28
2022-11-06T03:38:36.119Z,99582.59
2022-11-06T03:41:20.496Z,99582.31
2022-11-06T03:43:50.834Z,99574.50
2022-11-06T03:46:25.341Z,99576.47
2022-11-06T03:49:11.016Z,99589.91
2022-11-06T03:51:56.957Z,99590.78
2022-11-06T03:54:29.566Z,99594.75
2022-11-06T03:57:03.286Z,99600.19
2022-11-06T03:59:37.556Z,99599.06
2022-11-06T04:02:05.084Z,99605.88
2022-11-06T04:04:54.090Z,99614.97
2022-11-06T04:07:26.129Z,99631.69
2022-11-06T04:10:18.824Z,99607.03
2022-11-06T04:13:06.524Z,99617.69
2022-11-06T04:15:41.330Z,99625.25
2022-11-06T04:18:18.140Z,99628.13
2022-11-06T04:21:22.723Z,99618.03
2022-11-06T04:24:21.609Z,99626.38
2022-11-06T04:27:22.952Z,99619.25
2022-11-06T04:30:01.045Z,99627.38
2022-11-06T04:32:46.711Z,99634.66
2022-11-06T04:35:38.047Z,99629.34
2022-11-06T04:38:26.101Z,99628.66
2022-11-06T04:41:06.513Z,99637.03
2022-11-06T04:43:50.063Z,99626.69
2022-11-06T04:46:25.092Z,99641.09
2022-11-06T04:48:53.466Z,99620.75
2022-11-06T04:51:25.135Z,99628.38
2022-11-06T04:53:53.862Z,99642.97
2022-11-06T04:56:31.919Z,99640.94
2022-11-06T04:59:01.443Z,99635.16
2022-11-06T05:01:28.886Z,99629.19
2022-11-06T05:03:56.487Z,99634.25
2022-11-06T05:06:29.790Z,99649.25
2022-11-06T05:08:59.306Z,99643.97
2022-11-06T05:11:26.664Z,99640.25
2022-11-06T05:13:54.596Z,99644.66
2022-11-06T05:16:21.997Z,99651.78
2022-11-06T05:18:49.274Z,99644.56
2022-11-06T05:21:34.954Z,99645.00
2022-11-06T05:24:02.259Z,99649.28
2022-11-06T05:26:29.683Z,99650.81
2022-11-06T05:28:56.988Z,99650.44
2022-11-06T05:31:25.442Z,99665.25
2022-11-06T05:33:52.840Z,99661.25
2022-11-06T05:36:21.632Z,99668.09
2022-11-06T05:38:48.936Z,99672.25
2022-11-06T05:41:16.194Z,99677.53
2022-11-06T05:43:43.916Z,99677.03
2022-11-06T05:46:29.649Z,99685.75
2022-11-06T05:48:58.623Z,99680.28
2022-11-06T05:51:26.019Z,99689.16
2022-11-06T05:53:53.308Z,99687.34
2022-11-06T05:56:20.758Z,99674.19
2022-11-06T05:58:48.048Z,99683.47
2022-11-06T06:01:15.694Z,99671.78
2022-11-06T06:03:43.378Z,99678.34
2022-11-06T06:06:10.725Z,99697.09
2022-11-06T06:08:38.082Z,99695.25
2022-11-06T06:11:08.527Z,99698.66
2022-11-06T06:13:37.633Z,99713.34
2022-11-06T06:16:05.288Z,99712.19
2022-11-06T06:18:32.537Z,99701.75
2022-11-06T06:21:00.314Z,99709.44
2022-11-06T06:23:27.553Z,99708.94
2022-11-06T06:25:55.022Z,99720.34
2022-11-06T06:28:22.321Z,99719.91
2022-11-06T06:30:49.668Z,99723.72
2022-11-06T06:33:17.010Z,99733.09
2022-11-06T06:35:45.022Z,99726.63
2022-11-06T06:38:12.648Z,99727.91
2022-11-06T06:40:40.217Z,99733.88
2022-11-06T06:43:07.454Z,99723.94
2022-11-06T06:45:35.287Z,99741.44
2022-11-06T06:48:04.735Z,99737.22
2022-11-06T06:50:32.707Z,99747.06
2022-11-06T06:53:00.528Z,99742.88
2022-11-06T06:55:28.000Z,99744.47
2022-11-06T06:58:01.908Z,99746.81
2022-11-06T07:00:29.914Z,99755.06
2022-11-06T07:02:58.492Z,99750.88
2022-11-06T07:05:25.796Z,99762.84
2022-11-06T07:07:53.216Z,99773.75
2022-11-06T07:10:20.824Z,99769.28
2022-11-06T07:12:48.380Z,99768.84
2022-11-06T07:15:15.895Z,99769.31
2022-11-06T07:17:43.206Z,99769.13
2022-11-06T07:20:11.125Z,99765.44
2022-11-06T07:22:38.450Z,99769.53
2022-11-06T07:25:06.580Z,99774.41
2022-11-06T07:27:33.996Z,99748.88
2022-11-06T07:30:01.473Z,99772.19
2022-11-06T07:32:29.113Z,99774.25
2022-11-06T07:34:56.372Z,99782.25
2022-11-06T07:37:23.710Z,99778.16
2022-11-06T07:39:51.195Z,99791.31
2022-11-06T07:42:18.565Z,99778.72
2022-11-06T07:44:57.703Z,99782.28
2022-11-06T07:47:25.256Z,99777.34
2022-11-06T07:49:52.586Z,99787.25
2022-11-06T07:52:19.867Z,99795.28
2022-11-06T07:54:47.151Z,99796.47
2022-11-06T07:57:14.613Z,99796.81
2022-11-06T07:59:42.859Z,99792.03
2022-11-06T08:02:14.812Z,99796.47
2022-11-06T08:04:42.319Z,99797.19
2022-11-06T08:07:09.706Z,99808.78
2022-11-06T08:09:37.118Z,99813.56
2022-11-06T08:12:07.990Z,99819.69
2022-11-06T08:14:41.012Z,99814.53
2022-11-06T08:17:08.874Z,99819.63
2022-11-06T08:19:36.367Z,99820.25
2022-11-06T08:22:03.945Z,99813.09
2022-11-06T08:24:31.281Z,99826.19
2022-11-06T08:26:59.352Z,99821.66
2022-11-06T08:29:26.714Z,99827.94
2022-11-06T08:31:54.151Z,99826.47
2022-11-06T08:34:21.555Z,99807.78
2022-11-06T08:36:50.592Z,99823.75
2022-11-06T08:39:17.932Z,99822.88
2022-11-06T08:41:45.474Z,99824.69
2022-11-06T08:44:12.913Z,99826.47
2022-11-06T08:46:40.382Z,99836.63
2022-11-06T08:49:07.743Z,99839.41
2022-11-06T08:51:35.135Z,99835.00
2022-11-06T08:54:02.637Z,99841.13
2022-11-06T08:56:30.081Z,99839.97
2022-11-06T08:58:57.534Z,99843.28
2022-11-06T09:01:25.173Z,99851.16
2022-11-06T09:03:52.736Z,99851.94
2022-11-06T09:06:20.150Z,99849.75
2022-11-06T09:08:49.752Z,99846.41
2022-11-06T09:11:17.187Z,99850.06
2022-11-06T09:13:46.248Z,99850.13
2022-11-06T09:16:16.734Z,99853.66
2022-11-06T09:18:44.422Z,99847.97
2022-11-06T09:21:11.965Z,99856.78
2022-11-06T09:23:39.438Z,99860.88
2022-11-06T09:26:06.982Z,99851.28
2022-11-06T09:28:34.374Z,99860.13
2022-11-06T09:31:02.691Z,99857.50
2022-11-06T09:33:30.086Z,99861.66
2022-11-06T09:35:57.560Z,99872.38
2022-11-06T09:38:25.125Z,99867.63
2022-11-06T09:41:02.929Z,99847.97
2022-11-06T09:44:04.669Z,99869.88
2022-11-06T09:46:40.020Z,99869.41
2022-11-06T09:49:26.673Z,99863.22
2022-11-06T09:52:12.602Z,99865.31
2022-11-06T09:54:40.282Z,99874.22
2022-11-06T09:57:20.771Z,99871.09
2022-11-06T09:59:49.428Z,99862.00
2022-11-06T10:02:49.987Z,99863.03
2022-11-06T10:05:20.241Z,99858.88
2022-11-06T10:07:51.306Z,99862.94
2022-11-06T10:10:21.456Z,99866.91
2022-11-06T10:13:30.349Z,99864.38
2022-11-06T10:16:13.914Z,99857.88
2022-11-06T10:18:59.712Z,99859.63
2022-11-06T10:21:45.298Z,99854.72
2022-11-06T10:24:19.009Z,99846.91
2022-11-06T10:26:52.417Z,99850.81
2022-11-06T10:29:51.793Z,99844.63
2022-11-06T10:32:45.718Z,99842.25
2022-11-06T10:35:25.977Z,99841.13
2022-11-06T10:38:06.843Z,99837.72
2022-11-06T10:40:35.572Z,99836.59
2022-11-06T10:43:32.341Z,99838.88
2022-11-06T10:46:08.933Z,99837.44
2022-11-06T10:48:44.218Z,99849.97
2022-11-06T10:51:22.054Z,99837.28
2022-11-06T10:54:25.020Z,99835.41
2022-11-06T10:56:52.303Z,99843.56
2022-11-06T10:59:20.166Z,99839.31
2022-11-06T11:01:47.611Z,99839.41
2022-11-06T11:04:15.043Z,99837.41
2022-11-06T11:06:42.586Z,99830.25
2022-11-06T11:09:30.211Z,99827.66
2022-11-06T11:12:00.116Z,99821.19
2022-11-06T11:14:31.399Z,99816.00
2022-11-06T11:17:01.381Z,99818.97
2022-11-06T11:19:44.216Z,99821.50
2022-11-06T11:22:22.303Z,99825.44
2022-11-06T11:25:04.970Z,99827.47
2022-11-06T11:27:45.596Z,99828.56
2022-11-06T11:30:26.593Z,99824.00
2022-11-06T11:32:54.704Z,99830.94
2022-11-06T11:35:28.816Z,99825.41
2022-11-06T11:38:26.353Z,99834.00
2022-11-06T11:41:07.895Z,99824.06
2022-11-06T11:43:35.955Z,99827.03
2022-11-06T11:46:15.452Z,99826.53
2022-11-06T11:48:56.231Z,99820.44
2022-11-06T11:51:26.183Z,99823.63
2022-11-06T11:53:57.971Z,99823.19
2022-11-06T11:56:50.064Z,99818.34
2022-11-06T11:59:27.286Z,99817.44
2022-11-06T12:01:57.555Z,99810.16
2022-11-06T12:04:32.663Z,99815.06
2022-11-06T12:07:07.459Z,99812.44
2022-11-06T12:09:45.558Z,99819.19
2022-11-06T12:12:39.092Z,99805.22
2022-11-06T12:15:09.371Z,99816.69
2022-11-06T12:17:40.478Z,99816.06
2022-11-06T12:20:23.269Z,99818.63
2022-11-06T12:22:52.545Z,99825.13
2022-11-06T12:25:40.069Z,99818.63
2022-11-06T12:28:15.588Z,99824.00
2022-11-06T12:30:46.855Z,99827.00
2022-11-06T12:33:27.387Z,99825.97
2022-11-06T12:36:17.424Z,99826.97
2022-11-06T12:39:02.064Z,99832.00
2022-11-06T12:41:46.158Z,99829.50
2022-11-06T12:44:16.786Z,99838.25
2022-11-06T12:46:59.575Z,99838.78
2022-11-06T12:49:57.291Z,99838.81
2022-11-06T12:52:31.286Z,99848.53
2022-11-06T12:55:22.946Z,99843.75
2022-11-06T12:58:18.299Z,99844.22
2022-11-06T13:00:48.840Z,99850.50
2022-11-06T13:03:44.079Z,99855.03
2022-11-06T13:06:50.174Z,99828.63
2022-11-06T13:09:23.501Z,99854.63
2022-11-06T13:12:03.558Z,99862.47
2022-11-06T13:14:56.186Z,99859.31
2022-11-06T13:17:36.423Z,99853.63
2022-11-06T13:20:15.369Z,99850.72
2022-11-06T13:23:04.433Z,99863.50
2022-11-06T13:25:49.166Z,99863.81
2022-11-06T13:28:16.687Z,99859.00
2022-11-06T13:30:45.185Z,99869.28
2022-11-06T13:33:23.905Z,99870.69
2022-11-06T13:35:51.724Z,99858.66
2022-11-06T13:38:27.601Z,99872.41
2022-11-06T13:41:08.212Z,99879.66
2022-11-06T13:43:46.320Z,99878.88
2022-11-06T13:46:48.474Z,99879.69
2022-11-06T13:49:18.597Z,99876.94
2022-11-06T13:51:56.761Z,99885.28
2022-11-06T13:54:34.268Z,99883.78
2022-11-06T13:57:33.646Z,99881.13
2022-11-06T14:00:18.318Z,99886.88
2022-11-06T14:03:16.394Z,99883.59
2022-11-06T14:06:11.014Z,99892.38
2022-11-06T14:08:47.080Z,99893.78
2022-11-06T14:11:20.756Z,99901.56
2022-11-06T14:14:26.520Z,99901.84
2022-11-06T14:17:11.201Z,99909.50
2022-11-06T14:21:47.176Z,99907.41
2022-11-06T14:24:27.543Z,99917.09
2022-11-06T14:26:55.228Z,99915.75
2022-11-06T14:29:28.339Z,99914.25
2022-11-06T14:32:13.280Z,99926.25
2022-11-06T14:34:42.808Z,99916.75
2022-11-06T14:37:19.054Z,99925.91
2022-11-06T14:39:52.596Z,99929.09
2022-11-06T14:42:32.977Z,99927.47
2022-11-06T14:45:10.274Z,99915.91
2022-11-06T14:47:40.408Z,99923.69
2022-11-06T14:50:19.840Z,99930.63
2022-11-06T14:52:51.862Z,99932.31
2022-11-06T14:55:36.562Z,99938.38
2022-11-06T14:58:12.970Z,99937.72
2022-11-06T15:00:55.519Z,99937.59
2022-11-06T15:03:33.213Z,99941.25
2022-11-06T15:06:19.181Z,99942.16
2022-11-06T15:08:49.131Z,99944.81
2022-11-06T15:11:46.645Z,99952.72
2022-11-06T15:14:15.244Z,99958.06
2022-11-06T15:16:43.632Z,99961.66
2022-11-06T15:19:38.619Z,99960.16
2022-11-06T15:22:17.156Z,99960.31
2022-11-06T15:25:20.705Z,99963.75
2022-11-06T15:28:06.007Z,99971.63
2022-11-06T15:30:42.685Z,99981.03
2022-11-06T15:33:17.216Z,99984.78
2022-11-06T15:35:47.991Z,99988.22
2022-11-06T15:38:21.834Z,99986.34
2022-11-06T15:40:54.170Z,99994.56
2022-11-06T15:43:33.532Z,100000.19
2022-11-06T15:46:08.133Z,100000.19
2022-11-06T15:48:35.747Z,100001.72
2022-11-06T15:51:03.309Z,99999.66
2022-11-06T15:53:31.308Z,100003.25
2022-11-06T15:56:05.847Z,100015.53
2022-11-06T15:58:36.049Z,100025.44
2022-11-06T16:01:06.108Z,100026.63
2022-11-06T16:03:49.062Z,100026.63
2022-11-06T16:06:17.042Z,100028.31
2022-11-06T16:08:45.834Z,100029.59
2022-11-06T16:11:18.360Z,100032.16
2022-11-06T16:13:47.051Z,100035.06
2022-11-06T16:16:38.192Z,100036.81
2022-11-06T16:19:08.546Z,100033.03
2022-11-06T16:21:37.071Z,100044.44
2022-11-06T16:24:13.053Z,100042.22
2022-11-06T16:26:47.245Z,100053.13
2022-11-06T16:29:24.464Z,100046.31
2022-11-06T16:32:08.224Z,100062.66
2022-11-06T16:34:46.034Z,100055.81
2022-11-06T16:37:16.421Z,100066.41
2022-11-06T16:39:50.252Z,100069.94
2022-11-06T16:42:28.614Z,100073.34
2022-11-06T16:45:19.807Z,100082.56
2022-11-06T16:48:10.110Z,100094.63
2022-11-06T16:50:51.864Z,100091.91
2022-11-06T16:53:25.726Z,100098.09
2022-11-06T16:55:58.800Z,100096.03
2022-11-06T16:58:28.382Z,100098.66
2022-11-06T17:00:59.233Z,100099.31
2022-11-06T17:03:29.654Z,100103.06
2022-11-06T17:05:59.070Z,100101.28
2022-11-06T17:08:38.726Z,100102.75
2022-11-06T17:11:21.948Z,100112.78
2022-11-06T17:13:50.857Z,100107.78
2022-11-06T17:16:23.998Z,100113.69
2022-11-06T17:18:52.144Z,100120.66
2022-11-06T17:21:25.071Z,100125.50
2022-11-06T17:23:53.248Z,100130.22
2022-11-06T17:26:27.022Z,100131.56
2022-11-06T17:28:58.139Z,100134.41
2022-11-06T17:31:26.391Z,100133.91
2022-11-06T17:33:54.146Z,100140.16
2022-11-06T17:36:25.496Z,100143.81
2022-11-06T17:38:53.817Z,100148.09
2022-11-06T17:41:32.720Z,100140.91
2022-11-06T17:44:08.995Z,100145.84
2022-11-06T17:46:38.688Z,100143.97
2022-11-06T17:49:06.562Z,100151.19
2022-11-06T17:51:53.326Z,100158.66
2022-11-06T17:54:24.006Z,100160.88
2022-11-06T17:56:52.808Z,100164.28
2022-11-06T17:59:20.960Z,100164.06
2022-11-06T18:01:50.797Z,100169.44
2022-11-06T18:04:19.638Z,100161.50
2022-11-06T18:06:49.367Z,100167.28
2022-11-06T18:09:16.728Z,100166.75
2022-11-06T18:11:44.491Z,100164.19
2022-11-06T18:14:12.682Z,100171.94
2022-11-06T18:16:43.737Z,100178.47
2022-11-06T18:19:14.615Z,100175.47
2022-11-06T18:21:41.917Z,100175.19
2022-11-06T18:24:09.399Z,100177.22
2022-11-06T18:26:37.610Z,100178.66
2022-11-06T18:29:08.787Z,100178.78
2022-11-06T18:31:36.543Z,100178.63
2022-11-06T18:34:05.130Z,100188.66
2022-11-06T18:36:35.243Z,100195.56
2022-11-06T18:39:03.706Z,100194.59
2022-11-06T18:41:31.124Z,100191.31
2022-11-06T18:43:59.658Z,100198.84
2022-11-06T18:46:28.255Z,100204.13
2022-11-06T18:48:56.467Z,100193.44
2022-11-06T18:51:34.376Z,100203.91
2022-11-06T18:54:05.664Z,100202.84
2022-11-06T18:56:36.319Z,100209.03
2022-11-06T18:59:06.384Z,100197.81
2022-11-06T19:01:35.639Z,100211.72
2022-11-06T19:04:04.580Z,100209.56
2022-11-06T19:06:35.500Z,100218.31
2022-11-06T19:09:03.018Z,100210.28
2022-11-06T19:11:30.473Z,100209.44
2022-11-06T19:13:57.986Z,100219.75
2022-11-06T19:16:25.581Z,100219.88
2022-11-06T19:21:30.874Z,100210.28
2022-11-06T19:24:03.819Z,100220.44
2022-11-06T19:26:32.631Z,100222.09
2022-11-06T19:29:01.059Z,100219.09
2022-11-06T19:31:30.929Z,100215.75
2022-11-06T19:33:59.774Z,100226.06
2022-11-06T19:36:29.164Z,100231.41
2022-11-06T19:38:59.763Z,100236.69
2022-11-06T19:41:29.076Z,100227.50
2022-11-06T19:43:57.127Z,100234.41
2022-11-06T19:46:28.523Z,100232.09
2022-11-06T19:49:01.609Z,100229.25
2022-11-06T19:51:29.246Z,100223.66
2022-11-06T19:53:57.098Z,100240.44
2022-11-06T19:56:24.712Z,100247.44
2022-11-06T19:58:52.738Z,100249.47
2022-11-06T20:01:20.998Z,100250.03
2022-11-06T20:03:48.607Z,100252.03
2022-11-06T20:06:16.533Z,100259.47
2022-11-06T20:08:47.216Z,100241.59
2022-11-06T20:11:15.452Z,100262.91
2022-11-06T20:13:44.377Z,100256.47
2022-11-06T20:16:14.935Z,100270.06
2022-11-06T20:18:42.308Z,100284.81
2022-11-06T20:21:12.088Z,100279.09
2022-11-06T20:23:40.098Z,100289.56
2022-11-06T20:26:07.639Z,100288.25
2022-11-06T20:28:35.863Z,100284.69
2022-11-06T20:31:11.950Z,100287.84
2022-11-06T20:33:39.860Z,100300.44
2022-11-06T20:36:16.489Z,100306.00
2022-11-06T20:38:45.067Z,100297.22
2022-11-06T20:41:14.727Z,100312.00
2022-11-06T20:43:43.135Z,100309.69
2022-11-06T20:46:11.994Z,100313.19
2022-11-06T20:48:39.555Z,100317.00
2022-11-06T20:51:09.384Z,100320.72
2022-11-06T20:53:36.769Z,100326.44
2022-11-06T20:56:06.790Z,100321.84
2022-11-06T20:58:34.839Z,100321.28
2022-11-06T21:01:06.923Z,100331.81
2022-11-06T21:03:36.412Z,100335.13
2022-11-06T21:06:04.575Z,100333.13
2022-11-06T21:08:37.159Z,100342.72
2022-11-06T21:11:13.507Z,100342.44
2022-11-06T21:13:41.678Z,100335.75
2022-11-06T21:16:17.745Z,100336.56
2022-11-06T21:18:46.146Z,100338.53
2022-11-06T21:21:17.668Z,100342.38
2022-11-06T21:23:44.974Z,100344.59
2022-11-06T21:26:14.894Z,100327.56
2022-11-06T21:28:43.784Z,100331.13
2022-11-06T21:31:25.655Z,100323.75
2022-11-06T21:33:55.019Z,100317.72
2022-11-06T21:36:37.509Z,100332.44
2022-11-06T21:39:08.406Z,100342.03
2022-11-06T21:41:36.425Z,100340.28
2022-11-06T21:44:05.388Z,100338.66
2022-11-06T21:46:33.167Z,100337.91
2022-11-06T21:49:00.742Z,100349.34
2022-11-06T21:51:31.254Z,100347.53
2022-11-06T21:54:17.564Z,100345.53
2022-11-06T21:56:50.380Z,100351.63
2022-11-06T21:59:20.128Z,100343.78
2022-11-06T22:01:47.720Z,100348.59
2022-11-06T22:04:15.444Z,100353.31
2022-11-06T22:06:43.748Z,100363.56
2022-11-06T22:09:13.189Z,100358.66
2022-11-06T22:11:43.257Z,100356.94
2022-11-06T22:14:17.572Z,100360.53
2022-11-06T22:16:47.332Z,100362.38
2022-11-06T22:19:16.516Z,100361.91
2022-11-06T22:21:44.194Z,100335.84
2022-11-06T22:24:13.467Z,100363.06
2022-11-06T22:26:41.086Z,100360.47
2022-11-06T22:29:11.337Z,100367.44
2022-11-06T22:31:38.855Z,100363.28
2022-11-06T22:34:06.504Z,100363.41
2022-11-06T22:36:33.881Z,100367.38
2022-11-06T22:39:08.066Z,100356.88
2022-11-06T22:41:35.754Z,100366.25
2022-11-06T22:44:03.198Z,100362.97
2022-11-06T22:46:31.109Z,100361.38
2022-11-06T22:48:58.690Z,100360.25
2022-11-06T22:51:31.551Z,100369.75
2022-11-06T22:54:00.260Z,100370.81
2022-11-06T22:56:29.816Z,100380.50
2022-11-06T22:58:59.371Z,100383.09
2022-11-06T23:01:29.456Z,100372.22
2022-11-06T23:04:00.961Z,100382.22
2022-11-06T23:06:28.689Z,100385.91
2022-11-06T23:08:56.018Z,100391.06
2022-11-06T23:11:25.275Z,100388.38
2022-11-06T23:13:53.534Z,100395.44
2022-11-06T23:16:43.964Z,100392.63
2022-11-06T23:19:14.332Z,100393.28
2022-11-06T23:21:42.287Z,100397.47
2022-11-06T23:24:10.558Z,100395.25
2022-11-06T23:26:38.205Z,100411.78
2022-11-06T23:29:05.638Z,100412.75
2022-11-06T23:31:32.928Z,100408.81
2022-11-06T23:34:00.342Z,100410.31
2022-11-06T23:36:27.617Z,100412.28
2022-11-06T23:38:55.142Z,100410.06
2022-11-06T23:41:41.140Z,100406.50
2022-11-06T23:44:28.255Z,100410.66
2022-11-06T23:46:55.412Z,100412.63
2022-11-06T23:49:23.661Z,100416.94
2022-11-06T23:51:51.029Z,100414.72
2022-11-06T23:54:18.818Z,100415.50
2022-11-06T23:56:46.155Z,100426.44
2022-11-06T23:59:13.589Z,100429.66
